createdAt,value
2023-01-25T00:00:42.450Z,17.30
2023-01-25T00:04:04.724Z,17.30
2023-01-25T00:07:26.791Z,17.30
2023-01-25T00:10:51.188Z,17.30
2023-01-25T00:14:13.873Z,17.30
2023-01-25T00:17:35.949Z,17.30
2023-01-25T00:20:58.139Z,17.30
2023-01-25T00:24:23.023Z,17.30
2023-01-25T00:27:45.269Z,17.30
2023-01-25T00:31:08.041Z,17.30
2023-01-25T00:34:39.067Z,17.30
2023-01-25T00:38:02.547Z,17.30
2023-01-25T00:41:24.858Z,17.30
2023-01-25T00:44:47.824Z,17.30
2023-01-25T00:48:10.121Z,17.30
2023-01-25T00:51:32.281Z,17.20
2023-01-25T00:54:54.493Z,17.20
2023-01-25T00:58:16.624Z,17.20
2023-01-25T01:01:40.128Z,17.20
2023-01-25T01:05:02.327Z,17.20
2023-01-25T01:08:26.907Z,17.20
2023-01-25T01:11:49.348Z,17.20
2023-01-25T01:15:13.380Z,17.20
2023-01-25T01:18:36.281Z,17.20
2023-01-25T01:21:58.468Z,17.10
2023-01-25T01:25:20.636Z,17.10
2023-01-25T01:28:43.008Z,17.10
2023-01-25T01:32:05.883Z,17.10
2023-01-25T01:35:31.649Z,17.10
2023-01-25T01:38:53.875Z,17.20
2023-01-25T01:42:15.919Z,17.10
2023-01-25T01:45:57.322Z,17.10
2023-01-25T01:49:31.730Z,17.10
2023-01-25T01:53:11.933Z,17.10
2023-01-25T01:56:44.111Z,17.10
2023-01-25T02:00:32.876Z,17.10
2023-01-25T02:03:56.420Z,17.10
2023-01-25T02:07:36.274Z,17.10
2023-01-25T02:10:58.908Z,17.00
2023-01-25T02:14:21.352Z,17.10
2023-01-25T02:17:43.547Z,17.10
2023-01-25T02:21:07.180Z,17.10
2023-01-25T02:24:30.967Z,17.00
2023-01-25T02:28:01.704Z,17.00
2023-01-25T02:31:23.992Z,17.00
2023-01-25T02:34:46.288Z,17.00
2023-01-25T02:38:09.541Z,17.10
2023-01-25T02:41:39.050Z,17.10
2023-01-25T02:45:01.428Z,17.10
2023-01-25T02:48:23.585Z,17.20
2023-01-25T02:51:47.435Z,17.10
2023-01-25T02:55:10.283Z,17.20
2023-01-25T02:58:34.661Z,17.10
2023-01-25T03:01:56.953Z,17.10
2023-01-25T03:05:19.289Z,17.20
2023-01-25T03:08:41.748Z,17.10
2023-01-25T03:12:04.194Z,17.10
2023-01-25T03:15:28.337Z,17.20
2023-01-25T03:18:52.952Z,17.20
2023-01-25T03:22:15.447Z,17.20
2023-01-25T03:25:37.875Z,17.20
2023-01-25T03:29:06.407Z,17.10
2023-01-25T03:32:31.102Z,17.20
2023-01-25T03:35:59.542Z,17.20
2023-01-25T03:39:22.870Z,17.20
2023-01-25T03:42:45.041Z,17.30
2023-01-25T03:46:07.827Z,17.30
2023-01-25T03:49:30.473Z,17.30
2023-01-25T03:53:32.919Z,17.30
2023-01-25T03:57:03.632Z,17.30
2023-01-25T04:00:29.753Z,17.30
2023-01-25T04:03:55.838Z,17.30
2023-01-25T04:07:18.024Z,17.30
2023-01-25T04:10:40.283Z,17.30
2023-01-25T04:14:03.545Z,17.30
2023-01-25T04:17:33.235Z,17.20
2023-01-25T04:20:58.473Z,17.20
2023-01-25T04:24:21.736Z,17.20
2023-01-25T04:27:46.015Z,17.20
2023-01-25T04:31:11.358Z,17.20
2023-01-25T04:34:36.002Z,17.20
2023-01-25T04:37:59.230Z,17.20
2023-01-25T04:41:29.236Z,17.20
2023-01-25T04:44:52.294Z,17.20
2023-01-25T04:48:15.170Z,17.10
2023-01-25T04:51:44.635Z,17.10
2023-01-25T04:55:07.460Z,17.10
2023-01-25T04:58:35.505Z,17.10
2023-01-25T05:01:57.956Z,17.10
2023-01-25T05:05:20.670Z,17.10
2023-01-25T05:08:43.587Z,17.10
2023-01-25T05:12:11.617Z,17.20
2023-01-25T05:15:46.420Z,17.30
2023-01-25T05:19:12.319Z,17.40
2023-01-25T05:22:49.078Z,17.50
2023-01-25T05:26:29.923Z,17.70
2023-01-25T05:29:52.238Z,17.80
2023-01-25T05:33:16.630Z,17.90
2023-01-25T05:36:38.840Z,18.00
2023-01-25T05:40:01.175Z,18.00
2023-01-25T05:43:24.562Z,18.10
2023-01-25T05:46:47.263Z,18.20
2023-01-25T05:50:11.458Z,18.20
2023-01-25T05:53:45.989Z,18.20
2023-01-25T05:57:08.581Z,18.30
2023-01-25T06:00:30.709Z,18.50
2023-01-25T06:03:53.726Z,18.50
2023-01-25T06:07:17.301Z,18.50
2023-01-25T06:10:39.441Z,18.50
2023-01-25T06:14:01.733Z,18.50
2023-01-25T06:17:23.870Z,18.50
2023-01-25T06:21:04.545Z,18.60
2023-01-25T06:24:31.403Z,18.60
2023-01-25T06:27:55.193Z,18.60
2023-01-25T06:31:17.983Z,18.70
2023-01-25T06:34:40.198Z,18.70
2023-01-25T06:38:05.985Z,18.70
2023-01-25T06:41:28.283Z,18.60
2023-01-25T06:44:50.356Z,18.60
2023-01-25T06:48:12.977Z,18.70
2023-01-25T06:51:35.905Z,18.60
2023-01-25T06:54:58.064Z,18.60
2023-01-25T06:58:20.199Z,18.60
2023-01-25T07:01:42.369Z,18.60
2023-01-25T07:05:04.511Z,18.60
2023-01-25T07:08:27.067Z,18.60
2023-01-25T07:11:49.353Z,18.60
2023-01-25T07:15:11.868Z,18.60
2023-01-25T07:18:37.403Z,18.50
2023-01-25T07:21:59.550Z,18.50
2023-01-25T07:25:21.806Z,18.40
2023-01-25T07:28:44.480Z,18.30
2023-01-25T07:32:06.758Z,18.30
2023-01-25T07:35:28.829Z,18.30
2023-01-25T07:38:54.996Z,18.30
2023-01-25T07:42:17.400Z,18.30
2023-01-25T07:45:50.217Z,18.30
2023-01-25T07:49:12.433Z,18.30
2023-01-25T07:52:34.611Z,18.30
2023-01-25T07:55:58.524Z,18.30
2023-01-25T07:59:20.632Z,18.30
2023-01-25T08:02:42.916Z,18.30
2023-01-25T08:06:05.546Z,18.20
2023-01-25T08:09:28.314Z,18.20
2023-01-25T08:12:50.465Z,18.20
2023-01-25T08:16:19.931Z,18.20
2023-01-25T08:19:42.181Z,18.20
2023-01-25T08:23:04.373Z,18.20
2023-01-25T08:26:26.632Z,18.10
2023-01-25T08:29:50.591Z,18.00
2023-01-25T08:33:12.787Z,18.00
2023-01-25T08:36:35.015Z,18.00
2023-01-25T08:39:57.969Z,18.00
2023-01-25T08:43:20.281Z,18.10
2023-01-25T08:46:42.453Z,18.00
2023-01-25T08:50:04.874Z,18.00
2023-01-25T08:53:27.885Z,17.90
2023-01-25T08:56:50.693Z,18.00
2023-01-25T09:00:13.138Z,18.00
2023-01-25T09:03:36.313Z,18.00
2023-01-25T09:06:58.675Z,18.10
2023-01-25T09:10:20.918Z,18.10
2023-01-25T09:13:43.821Z,18.10
2023-01-25T09:17:06.054Z,18.10
2023-01-25T09:20:29.467Z,18.10
2023-01-25T09:24:10.703Z,18.00
2023-01-25T09:27:32.932Z,18.00
2023-01-25T09:31:14.860Z,18.00
2023-01-25T09:35:06.787Z,18.00
2023-01-25T09:38:29.174Z,17.90
2023-01-25T09:42:00.787Z,17.90
2023-01-25T09:45:33.198Z,18.00
2023-01-25T09:49:21.817Z,17.90
2023-01-25T09:52:54.847Z,17.90
2023-01-25T09:56:24.908Z,17.80
2023-01-25T09:59:48.136Z,17.80
2023-01-25T10:03:25.847Z,17.80
2023-01-25T10:07:01.827Z,17.70
2023-01-25T10:10:26.950Z,17.70
2023-01-25T10:13:49.251Z,17.80
2023-01-25T10:17:20.531Z,17.70
2023-01-25T10:20:48.841Z,17.70
2023-01-25T10:24:29.798Z,17.70
2023-01-25T10:27:55.226Z,17.80
2023-01-25T10:31:19.780Z,17.80
2023-01-25T10:34:56.274Z,17.80
2023-01-25T10:38:19.059Z,17.80
2023-01-25T10:41:48.045Z,17.80
2023-01-25T10:45:14.416Z,17.80
2023-01-25T10:48:37.473Z,17.80
2023-01-25T10:52:16.623Z,17.80
2023-01-25T10:55:54.068Z,17.80
2023-01-25T10:59:24.683Z,17.80
2023-01-25T11:02:47.887Z,17.80
2023-01-25T11:06:10.544Z,17.80
2023-01-25T11:09:34.061Z,17.70
2023-01-25T11:13:14.860Z,17.70
2023-01-25T11:16:39.023Z,17.70
2023-01-25T11:20:07.771Z,17.70
2023-01-25T11:23:32.181Z,17.70
2023-01-25T11:27:12.032Z,17.70
2023-01-25T11:30:34.253Z,17.70
2023-01-25T11:33:56.567Z,17.70
2023-01-25T11:37:18.692Z,17.80
2023-01-25T11:41:01.105Z,17.80
2023-01-25T11:44:41.531Z,17.80
2023-01-25T11:48:06.429Z,17.80
2023-01-25T11:51:37.302Z,17.90
2023-01-25T11:55:01.984Z,17.90
2023-01-25T11:58:44.186Z,17.80
2023-01-25T12:02:25.079Z,17.80
2023-01-25T12:05:47.245Z,17.80
2023-01-25T12:09:21.745Z,17.80
2023-01-25T12:13:04.136Z,17.80
2023-01-25T12:16:26.333Z,17.80
2023-01-25T12:20:00.722Z,17.70
2023-01-25T12:23:41.582Z,17.80
2023-01-25T12:27:03.703Z,17.80
2023-01-25T12:30:38.048Z,17.70
2023-01-25T12:34:03.654Z,17.70
2023-01-25T12:37:29.874Z,17.70
2023-01-25T12:40:55.025Z,17.70
2023-01-25T12:44:22.951Z,17.70
2023-01-25T12:47:53.976Z,17.70
2023-01-25T12:51:17.528Z,17.60
2023-01-25T12:54:41.122Z,17.70
2023-01-25T12:58:32.850Z,17.60
2023-01-25T13:02:10.033Z,17.60
2023-01-25T13:05:37.534Z,17.50
2023-01-25T13:09:08.851Z,17.50
2023-01-25T13:12:49.913Z,17.50
2023-01-25T13:16:30.155Z,17.50
2023-01-25T13:19:53.443Z,17.50
2023-01-25T13:23:34.408Z,17.50
2023-01-25T13:26:57.128Z,17.50
2023-01-25T13:30:21.985Z,17.50
2023-01-25T13:33:44.149Z,17.50
2023-01-25T13:37:24.880Z,17.50
2023-01-25T13:41:01.332Z,17.50
2023-01-25T13:44:28.310Z,17.50
2023-01-25T13:48:05.299Z,17.50
2023-01-25T13:51:28.818Z,17.50
2023-01-25T13:54:54.399Z,17.50
2023-01-25T13:58:16.513Z,17.50
2023-01-25T14:01:38.746Z,17.50
2023-01-25T14:05:02.246Z,17.50
2023-01-25T14:08:31.110Z,17.50
2023-01-25T14:11:57.717Z,17.50
2023-01-25T14:15:22.302Z,17.40
2023-01-25T14:18:45.278Z,17.40
2023-01-25T14:22:13.546Z,17.40
2023-01-25T14:25:35.675Z,17.40
2023-01-25T14:29:01.549Z,17.50
2023-01-25T14:32:26.283Z,17.50
2023-01-25T14:35:59.844Z,17.50
2023-01-25T14:39:27.260Z,17.50
2023-01-25T14:42:50.190Z,17.50
2023-01-25T14:46:38.825Z,17.50
2023-01-25T14:50:23.983Z,17.50
2023-01-25T14:53:48.136Z,17.50
2023-01-25T14:57:39.819Z,17.50
2023-01-25T15:01:02.890Z,17.50
2023-01-25T15:04:25.146Z,17.50
2023-01-25T15:07:57.900Z,17.40
2023-01-25T15:11:38.578Z,17.40
2023-01-25T15:15:02.745Z,17.40
2023-01-25T15:18:43.548Z,17.40
2023-01-25T15:22:08.381Z,17.50
2023-01-25T15:25:30.565Z,17.50
2023-01-25T15:28:54.461Z,17.50
2023-01-25T15:32:20.875Z,17.50
2023-01-25T15:35:44.151Z,17.50
2023-01-25T15:39:10.972Z,17.50
2023-01-25T15:42:33.170Z,17.50
2023-01-25T15:45:57.543Z,17.50
2023-01-25T15:49:26.824Z,17.50
2023-01-25T15:52:48.974Z,17.40
2023-01-25T15:56:13.503Z,17.50
2023-01-25T15:59:36.099Z,17.50
2023-01-25T16:02:58.247Z,17.50
2023-01-25T16:06:20.335Z,17.50
2023-01-25T16:09:42.543Z,17.50
2023-01-25T16:13:04.717Z,17.60
2023-01-25T16:16:27.163Z,17.50
2023-01-25T16:19:49.432Z,17.50
2023-01-25T16:23:12.125Z,17.50
2023-01-25T16:26:35.968Z,17.50
2023-01-25T16:29:58.198Z,17.50
2023-01-25T16:33:24.096Z,17.50
2023-01-25T16:36:50.348Z,17.50
2023-01-25T16:40:20.619Z,17.40
2023-01-25T16:43:43.926Z,17.50
2023-01-25T16:47:06.361Z,17.50
2023-01-25T16:50:28.513Z,17.60
2023-01-25T16:53:51.607Z,17.50
2023-01-25T16:57:20.270Z,17.50
2023-01-25T17:00:42.834Z,17.50
2023-01-25T17:04:05.056Z,17.50
2023-01-25T17:07:27.216Z,17.50
2023-01-25T17:10:49.538Z,17.50
2023-01-25T17:14:13.352Z,17.60
2023-01-25T17:17:35.547Z,17.50
2023-01-25T17:21:01.630Z,17.50
2023-01-25T17:24:23.820Z,17.50
2023-01-25T17:27:46.295Z,17.50
2023-01-25T17:31:18.624Z,17.60
2023-01-25T17:34:40.831Z,17.60
2023-01-25T17:38:03.062Z,17.80
2023-01-25T17:41:25.432Z,17.80
2023-01-25T17:44:47.569Z,17.90
2023-01-25T17:48:09.810Z,17.90
2023-01-25T17:54:55.685Z,18.00
2023-01-25T18:01:42.891Z,18.00
2023-01-25T18:05:05.327Z,18.10
2023-01-25T18:08:27.467Z,18.20
2023-01-25T18:11:49.720Z,18.20
2023-01-25T18:15:12.177Z,18.20
2023-01-25T18:18:34.587Z,18.20
2023-01-25T18:21:57.322Z,18.20
2023-01-25T18:25:28.667Z,18.30
2023-01-25T18:28:53.183Z,18.30
2023-01-25T18:32:15.698Z,18.30
2023-01-25T18:35:37.864Z,18.30
2023-01-25T18:39:01.406Z,18.30
2023-01-25T18:42:24.459Z,18.30
2023-01-25T18:45:53.307Z,18.30
2023-01-25T18:49:15.548Z,18.30
2023-01-25T18:52:37.792Z,18.30
2023-01-25T18:56:04.277Z,18.30
2023-01-25T18:59:26.630Z,18.30
2023-01-25T19:02:48.996Z,18.30
2023-01-25T19:06:11.212Z,18.40
2023-01-25T19:09:33.300Z,18.40
2023-01-25T19:12:55.489Z,18.40
2023-01-25T19:16:17.741Z,18.50
2023-01-25T19:19:40.543Z,18.50
2023-01-25T19:23:02.629Z,18.50
2023-01-25T19:26:25.427Z,18.50
2023-01-25T19:29:47.654Z,18.60
2023-01-25T19:33:11.302Z,18.50
2023-01-25T19:36:36.038Z,18.60
2023-01-25T19:39:58.252Z,18.60
2023-01-25T19:43:20.404Z,18.60
2023-01-25T19:46:42.828Z,18.60
2023-01-25T19:50:05.163Z,18.60
2023-01-25T19:53:27.310Z,18.60
2023-01-25T19:56:49.825Z,18.70
2023-01-25T20:00:12.317Z,18.70
2023-01-25T20:03:34.919Z,18.70
2023-01-25T20:06:57.215Z,18.70
2023-01-25T20:10:19.335Z,18.60
2023-01-25T20:13:41.851Z,18.50
2023-01-25T20:17:04.168Z,18.70
2023-01-25T20:20:26.313Z,18.60
2023-01-25T20:23:49.751Z,18.60
2023-01-25T20:27:11.999Z,18.50
2023-01-25T20:30:34.207Z,18.50
2023-01-25T20:33:57.511Z,18.50
2023-01-25T20:37:20.326Z,18.40
2023-01-25T20:40:42.607Z,18.40
2023-01-25T20:44:08.414Z,18.40
2023-01-25T20:47:30.593Z,18.40
2023-01-25T20:50:52.775Z,18.40
2023-01-25T20:54:15.571Z,18.40
2023-01-25T20:57:37.887Z,18.40
2023-01-25T21:01:00.143Z,18.40
2023-01-25T21:04:22.447Z,18.30
2023-01-25T21:07:44.573Z,18.30
2023-01-25T21:11:06.745Z,18.30
2023-01-25T21:14:28.937Z,18.30
2023-01-25T21:17:52.504Z,18.30
2023-01-25T21:21:16.584Z,18.20
2023-01-25T21:24:38.678Z,18.20
2023-01-25T21:28:00.822Z,18.20
2023-01-25T21:31:24.572Z,18.20
2023-01-25T21:34:47.053Z,18.20
2023-01-25T21:38:09.182Z,18.20
2023-01-25T21:41:33.685Z,18.10
2023-01-25T21:45:14.528Z,18.10
2023-01-25T21:48:55.134Z,18.10
2023-01-25T21:52:17.256Z,18.10
2023-01-25T21:55:39.484Z,18.10
2023-01-25T21:59:01.566Z,18.10
2023-01-25T22:02:23.819Z,18.00
2023-01-25T22:05:46.073Z,18.00
2023-01-25T22:09:08.845Z,18.00
2023-01-25T22:12:31.013Z,18.00
2023-01-25T22:15:53.166Z,18.00
2023-01-25T22:19:15.474Z,18.00
2023-01-25T22:22:37.695Z,18.00
2023-01-25T22:26:09.953Z,18.00
2023-01-25T22:29:35.251Z,17.90
2023-01-25T22:32:57.403Z,17.90
2023-01-25T22:36:20.844Z,17.90
2023-01-25T22:39:43.012Z,17.90
2023-01-25T22:43:05.209Z,18.00
2023-01-25T22:46:28.140Z,17.90
2023-01-25T22:49:50.301Z,17.90
2023-01-25T22:53:12.401Z,17.90
2023-01-25T22:56:34.666Z,17.90
2023-01-25T22:59:56.741Z,17.80
2023-01-25T23:03:18.898Z,17.90
2023-01-25T23:06:41.123Z,17.90
2023-01-25T23:10:03.337Z,17.90
2023-01-25T23:13:25.529Z,17.90
2023-01-25T23:16:47.670Z,17.80
2023-01-25T23:20:11.037Z,17.80
2023-01-25T23:23:33.457Z,17.90
2023-01-25T23:26:55.609Z,17.80
2023-01-25T23:30:17.949Z,17.80
2023-01-25T23:33:40.292Z,17.80
2023-01-25T23:37:02.972Z,17.70
2023-01-25T23:40:25.149Z,17.70
2023-01-25T23:43:48.428Z,17.70
2023-01-25T23:47:10.616Z,17.60
2023-01-25T23:50:32.794Z,17.60
2023-01-25T23:53:55.814Z,17.60
2023-01-25T23:57:17.989Z,17.60
